sensor_id;sensor_type;location;lat;lon;timestamp;P1;durP1;ratioP1;P2;durP2;ratioP2
70744;SDS011;59284;31.390;34.904;2022-07-05T00:00:04;4.70;;;2.22;;
70744;SDS011;59284;31.390;34.904;2022-07-05T00:02:31;3.60;;;2.28;;
70744;SDS011;59284;31.390;34.904;2022-07-05T00:04:58;4.07;;;2.08;;
70744;SDS011;59284;31.390;34.904;2022-07-05T00:07:24;3.50;;;2.30;;
70744;SDS011;59284;31.390;34.904;2022-07-05T00:09:51;3.45;;;2.00;;
70744;SDS011;59284;31.390;34.904;2022-07-05T00:12:19;3.30;;;2.00;;
70744;SDS011;59284;31.390;34.904;2022-07-05T00:14:49;3.47;;;2.20;;
70744;SDS011;59284;31.390;34.904;2022-07-05T00:17:15;5.15;;;1.83;;
70744;SDS011;59284;31.390;34.904;2022-07-05T00:19:41;3.95;;;1.95;;
70744;SDS011;59284;31.390;34.904;2022-07-05T00:22:06;3.70;;;1.70;;
70744;SDS011;59284;31.390;34.904;2022-07-05T00:24:32;4.13;;;2.25;;
70744;SDS011;59284;31.390;34.904;2022-07-05T00:27:00;3.92;;;1.95;;
70744;SDS011;59284;31.390;34.904;2022-07-05T00:29:26;5.53;;;2.10;;
70744;SDS011;59284;31.390;34.904;2022-07-05T00:31:52;3.87;;;2.00;;
70744;SDS011;59284;31.390;34.904;2022-07-05T00:34:18;3.30;;;1.80;;
70744;SDS011;59284;31.390;34.904;2022-07-05T00:36:44;3.75;;;2.10;;
70744;SDS011;59284;31.390;34.904;2022-07-05T00:39:09;4.53;;;2.10;;
70744;SDS011;59284;31.390;34.904;2022-07-05T00:41:35;6.15;;;1.90;;
70744;SDS011;59284;31.390;34.904;2022-07-05T00:44:08;4.07;;;2.47;;
70744;SDS011;59284;31.390;34.904;2022-07-05T00:46:36;5.03;;;2.37;;
70744;SDS011;59284;31.390;34.904;2022-07-05T00:49:03;7.00;;;2.50;;
70744;SDS011;59284;31.390;34.904;2022-07-05T00:51:32;4.60;;;2.80;;
70744;SDS011;59284;31.390;34.904;2022-07-05T00:54:05;5.60;;;2.50;;
70744;SDS011;59284;31.390;34.904;2022-07-05T00:56:31;8.35;;;2.80;;
70744;SDS011;59284;31.390;34.904;2022-07-05T00:58:57;4.70;;;2.67;;
70744;SDS011;59284;31.390;34.904;2022-07-05T01:01:23;5.55;;;2.95;;
70744;SDS011;59284;31.390;34.904;2022-07-05T01:03:51;5.35;;;2.80;;
70744;SDS011;59284;31.390;34.904;2022-07-05T01:06:17;8.20;;;3.33;;
70744;SDS011;59284;31.390;34.904;2022-07-05T01:08:43;6.32;;;2.97;;
70744;SDS011;59284;31.390;34.904;2022-07-05T01:11:11;4.68;;;3.10;;
70744;SDS011;59284;31.390;34.904;2022-07-05T01:13:38;7.68;;;3.42;;
70744;SDS011;59284;31.390;34.904;2022-07-05T01:16:04;5.60;;;2.73;;
70744;SDS011;59284;31.390;34.904;2022-07-05T01:18:30;4.68;;;3.22;;
70744;SDS011;59284;31.390;34.904;2022-07-05T01:20:58;5.18;;;3.00;;
70744;SDS011;59284;31.390;34.904;2022-07-05T01:23:29;4.85;;;2.80;;
70744;SDS011;59284;31.390;34.904;2022-07-05T01:25:56;8.25;;;4.13;;
70744;SDS011;59284;31.390;34.904;2022-07-05T01:28:26;10.33;;;4.90;;
70744;SDS011;59284;31.390;34.904;2022-07-05T01:30:55;10.43;;;5.05;;
70744;SDS011;59284;31.390;34.904;2022-07-05T01:33:30;11.95;;;6.25;;
70744;SDS011;59284;31.390;34.904;2022-07-05T01:35:57;11.15;;;5.53;;
70744;SDS011;59284;31.390;34.904;2022-07-05T01:38:24;10.17;;;5.70;;
70744;SDS011;59284;31.390;34.904;2022-07-05T01:40:50;8.60;;;6.25;;
70744;SDS011;59284;31.390;34.904;2022-07-05T01:43:20;7.88;;;5.88;;
70744;SDS011;59284;31.390;34.904;2022-07-05T01:45:48;11.40;;;6.53;;
70744;SDS011;59284;31.390;34.904;2022-07-05T01:48:18;11.27;;;7.60;;
70744;SDS011;59284;31.390;34.904;2022-07-05T01:50:49;11.23;;;7.68;;
70744;SDS011;59284;31.390;34.904;2022-07-05T01:53:20;14.10;;;8.88;;
70744;SDS011;59284;31.390;34.904;2022-07-05T01:55:52;15.77;;;9.68;;
70744;SDS011;59284;31.390;34.904;2022-07-05T01:58:20;14.93;;;10.77;;
70744;SDS011;59284;31.390;34.904;2022-07-05T02:00:47;18.60;;;10.93;;
70744;SDS011;59284;31.390;34.904;2022-07-05T02:03:15;18.88;;;11.35;;
70744;SDS011;59284;31.390;34.904;2022-07-05T02:05:41;19.08;;;10.90;;
70744;SDS011;59284;31.390;34.904;2022-07-05T02:08:08;17.48;;;10.15;;
70744;SDS011;59284;31.390;34.904;2022-07-05T02:10:38;16.00;;;10.57;;
70744;SDS011;59284;31.390;34.904;2022-07-05T02:13:04;19.23;;;11.45;;
70744;SDS011;59284;31.390;34.904;2022-07-05T02:15:31;16.65;;;11.30;;
70744;SDS011;59284;31.390;34.904;2022-07-05T02:17:59;16.35;;;11.15;;
70744;SDS011;59284;31.390;34.904;2022-07-05T02:20:26;16.95;;;11.52;;
70744;SDS011;59284;31.390;34.904;2022-07-05T02:22:53;15.40;;;11.50;;
70744;SDS011;59284;31.390;34.904;2022-07-05T02:25:18;21.40;;;13.98;;
70744;SDS011;59284;31.390;34.904;2022-07-05T02:27:44;22.90;;;13.30;;
70744;SDS011;59284;31.390;34.904;2022-07-05T02:30:10;21.42;;;13.00;;
70744;SDS011;59284;31.390;34.904;2022-07-05T02:32:39;22.15;;;13.98;;
70744;SDS011;59284;31.390;34.904;2022-07-05T02:35:05;21.60;;;12.27;;
70744;SDS011;59284;31.390;34.904;2022-07-05T02:37:35;23.23;;;12.60;;
70744;SDS011;59284;31.390;34.904;2022-07-05T02:40:01;21.85;;;12.90;;
70744;SDS011;59284;31.390;34.904;2022-07-05T02:42:27;19.55;;;11.75;;
70744;SDS011;59284;31.390;34.904;2022-07-05T02:44:53;23.10;;;11.67;;
70744;SDS011;59284;31.390;34.904;2022-07-05T02:47:24;22.25;;;13.02;;
70744;SDS011;59284;31.390;34.904;2022-07-05T02:49:54;20.08;;;13.45;;
70744;SDS011;59284;31.390;34.904;2022-07-05T02:52:19;22.53;;;13.97;;
70744;SDS011;59284;31.390;34.904;2022-07-05T02:54:45;22.70;;;14.45;;
70744;SDS011;59284;31.390;34.904;2022-07-05T02:57:11;23.43;;;14.90;;
70744;SDS011;59284;31.390;34.904;2022-07-05T02:59:36;20.25;;;14.38;;
70744;SDS011;59284;31.390;34.904;2022-07-05T03:02:02;23.30;;;15.47;;
70744;SDS011;59284;31.390;34.904;2022-07-05T03:04:28;30.42;;;17.00;;
70744;SDS011;59284;31.390;34.904;2022-07-05T03:06:54;28.30;;;17.00;;
70744;SDS011;59284;31.390;34.904;2022-07-05T03:09:19;29.55;;;16.17;;
70744;SDS011;59284;31.390;34.904;2022-07-05T03:11:45;28.93;;;17.30;;
70744;SDS011;59284;31.390;34.904;2022-07-05T03:14:11;23.65;;;13.75;;
70744;SDS011;59284;31.390;34.904;2022-07-05T03:16:36;22.10;;;13.23;;
70744;SDS011;59284;31.390;34.904;2022-07-05T03:19:03;22.52;;;13.68;;
70744;SDS011;59284;31.390;34.904;2022-07-05T03:21:29;21.67;;;13.35;;
70744;SDS011;59284;31.390;34.904;2022-07-05T03:23:55;22.60;;;13.73;;
70744;SDS011;59284;31.390;34.904;2022-07-05T03:26:20;23.00;;;14.70;;
70744;SDS011;59284;31.390;34.904;2022-07-05T03:28:46;25.50;;;13.80;;
70744;SDS011;59284;31.390;34.904;2022-07-05T03:31:12;20.17;;;12.43;;
70744;SDS011;59284;31.390;34.904;2022-07-05T03:33:37;16.07;;;11.30;;
70744;SDS011;59284;31.390;34.904;2022-07-05T03:36:03;20.23;;;10.80;;
70744;SDS011;59284;31.390;34.904;2022-07-05T03:38:29;26.25;;;9.93;;
70744;SDS011;59284;31.390;34.904;2022-07-05T03:40:55;10.65;;;8.38;;
70744;SDS011;59284;31.390;34.904;2022-07-05T03:43:20;12.50;;;7.67;;
70744;SDS011;59284;31.390;34.904;2022-07-05T03:45:46;15.55;;;8.50;;
70744;SDS011;59284;31.390;34.904;2022-07-05T03:48:12;12.55;;;8.05;;
70744;SDS011;59284;31.390;34.904;2022-07-05T03:50:41;12.97;;;9.17;;
70744;SDS011;59284;31.390;34.904;2022-07-05T03:53:09;14.45;;;8.73;;
70744;SDS011;59284;31.390;34.904;2022-07-05T03:55:35;14.77;;;8.52;;
70744;SDS011;59284;31.390;34.904;2022-07-05T03:58:00;13.43;;;8.43;;
70744;SDS011;59284;31.390;34.904;2022-07-05T04:00:26;12.00;;;7.23;;
70744;SDS011;59284;31.390;34.904;2022-07-05T04:02:52;8.63;;;6.10;;
70744;SDS011;59284;31.390;34.904;2022-07-05T04:05:17;14.90;;;5.45;;
70744;SDS011;59284;31.390;34.904;2022-07-05T04:07:50;10.83;;;5.27;;
70744;SDS011;59284;31.390;34.904;2022-07-05T04:10:17;6.43;;;4.78;;
70744;SDS011;59284;31.390;34.904;2022-07-05T04:12:43;7.45;;;4.63;;
70744;SDS011;59284;31.390;34.904;2022-07-05T04:15:09;8.27;;;4.47;;
70744;SDS011;59284;31.390;34.904;2022-07-05T04:17:45;6.40;;;3.87;;
70744;SDS011;59284;31.390;34.904;2022-07-05T04:20:21;6.28;;;2.90;;
70744;SDS011;59284;31.390;34.904;2022-07-05T04:22:51;4.78;;;3.40;;
70744;SDS011;59284;31.390;34.904;2022-07-05T04:25:17;5.80;;;2.78;;
70744;SDS011;59284;31.390;34.904;2022-07-05T04:27:47;7.65;;;3.88;;
70744;SDS011;59284;31.390;34.904;2022-07-05T04:30:14;7.30;;;3.60;;
70744;SDS011;59284;31.390;34.904;2022-07-05T04:32:43;5.07;;;3.10;;
70744;SDS011;59284;31.390;34.904;2022-07-05T04:35:13;6.30;;;3.40;;
70744;SDS011;59284;31.390;34.904;2022-07-05T04:37:39;5.38;;;2.88;;
70744;SDS011;59284;31.390;34.904;2022-07-05T04:40:13;6.05;;;3.55;;
70744;SDS011;59284;31.390;34.904;2022-07-05T04:42:41;4.67;;;3.13;;
70744;SDS011;59284;31.390;34.904;2022-07-05T04:45:11;8.63;;;3.40;;
70744;SDS011;59284;31.390;34.904;2022-07-05T04:47:37;5.55;;;2.97;;
70744;SDS011;59284;31.390;34.904;2022-07-05T04:50:05;7.55;;;3.20;;
70744;SDS011;59284;31.390;34.904;2022-07-05T04:52:52;4.10;;;2.47;;
70744;SDS011;59284;31.390;34.904;2022-07-05T04:55:24;7.27;;;2.80;;
70744;SDS011;59284;31.390;34.904;2022-07-05T04:58:02;4.97;;;2.35;;
70744;SDS011;59284;31.390;34.904;2022-07-05T05:00:38;6.97;;;2.40;;
70744;SDS011;59284;31.390;34.904;2022-07-05T05:03:08;3.88;;;2.40;;
70744;SDS011;59284;31.390;34.904;2022-07-05T05:05:55;4.40;;;2.30;;
70744;SDS011;59284;31.390;34.904;2022-07-05T05:12:07;3.17;;;2.13;;
70744;SDS011;59284;31.390;34.904;2022-07-05T05:14:43;5.63;;;2.45;;
70744;SDS011;59284;31.390;34.904;2022-07-05T05:18:05;7.68;;;2.60;;
70744;SDS011;59284;31.390;34.904;2022-07-05T05:23:54;5.13;;;2.90;;
70744;SDS011;59284;31.390;34.904;2022-07-05T05:28:56;4.43;;;2.25;;
70744;SDS011;59284;31.390;34.904;2022-07-05T05:31:22;9.63;;;3.33;;
70744;SDS011;59284;31.390;34.904;2022-07-05T05:33:50;5.93;;;3.27;;
70744;SDS011;59284;31.390;34.904;2022-07-05T05:36:16;7.80;;;3.00;;
70744;SDS011;59284;31.390;34.904;2022-07-05T05:38:41;5.50;;;2.60;;
70744;SDS011;59284;31.390;34.904;2022-07-05T05:41:13;6.32;;;2.75;;
70744;SDS011;59284;31.390;34.904;2022-07-05T05:43:42;5.82;;;2.47;;
70744;SDS011;59284;31.390;34.904;2022-07-05T05:46:12;7.00;;;2.55;;
70744;SDS011;59284;31.390;34.904;2022-07-05T05:48:38;5.60;;;2.47;;
70744;SDS011;59284;31.390;34.904;2022-07-05T05:51:04;9.23;;;2.22;;
70744;SDS011;59284;31.390;34.904;2022-07-05T05:53:30;7.60;;;2.47;;
70744;SDS011;59284;31.390;34.904;2022-07-05T05:55:56;7.33;;;2.70;;
70744;SDS011;59284;31.390;34.904;2022-07-05T05:58:24;5.15;;;2.28;;
70744;SDS011;59284;31.390;34.904;2022-07-05T06:00:59;6.28;;;2.45;;
70744;SDS011;59284;31.390;34.904;2022-07-05T06:03:27;6.10;;;2.70;;
70744;SDS011;59284;31.390;34.904;2022-07-05T06:05:53;10.15;;;2.60;;
70744;SDS011;59284;31.390;34.904;2022-07-05T06:08:30;6.35;;;2.47;;
70744;SDS011;59284;31.390;34.904;2022-07-05T06:10:56;6.03;;;2.38;;
70744;SDS011;59284;31.390;34.904;2022-07-05T06:13:29;4.10;;;2.00;;
70744;SDS011;59284;31.390;34.904;2022-07-05T06:16:02;4.50;;;2.20;;
70744;SDS011;59284;31.390;34.904;2022-07-05T06:18:31;5.53;;;2.60;;
70744;SDS011;59284;31.390;34.904;2022-07-05T06:21:00;10.18;;;2.95;;
70744;SDS011;59284;31.390;34.904;2022-07-05T06:23:28;4.15;;;2.67;;
70744;SDS011;59284;31.390;34.904;2022-07-05T06:26:05;5.90;;;3.10;;
70744;SDS011;59284;31.390;34.904;2022-07-05T06:28:40;4.10;;;3.10;;
70744;SDS011;59284;31.390;34.904;2022-07-05T06:31:05;7.90;;;3.60;;
70744;SDS011;59284;31.390;34.904;2022-07-05T06:33:34;9.57;;;3.03;;
70744;SDS011;59284;31.390;34.904;2022-07-05T06:36:02;7.67;;;3.30;;
70744;SDS011;59284;31.390;34.904;2022-07-05T06:38:28;5.93;;;3.40;;
70744;SDS011;59284;31.390;34.904;2022-07-05T06:40:54;9.80;;;3.05;;
70744;SDS011;59284;31.390;34.904;2022-07-05T06:43:22;7.47;;;3.33;;
70744;SDS011;59284;31.390;34.904;2022-07-05T06:45:48;10.88;;;3.17;;
70744;SDS011;59284;31.390;34.904;2022-07-05T06:48:21;5.55;;;2.60;;
70744;SDS011;59284;31.390;34.904;2022-07-05T06:50:47;5.43;;;2.70;;
70744;SDS011;59284;31.390;34.904;2022-07-05T06:55:59;8.23;;;2.90;;
70744;SDS011;59284;31.390;34.904;2022-07-05T06:58:25;8.30;;;3.05;;
70744;SDS011;59284;31.390;34.904;2022-07-05T07:00:52;7.83;;;3.20;;
70744;SDS011;59284;31.390;34.904;2022-07-05T07:03:20;11.10;;;3.83;;
70744;SDS011;59284;31.390;34.904;2022-07-05T07:05:51;9.18;;;2.80;;
70744;SDS011;59284;31.390;34.904;2022-07-05T07:08:17;7.07;;;3.23;;
70744;SDS011;59284;31.390;34.904;2022-07-05T07:11:01;8.32;;;2.97;;
70744;SDS011;59284;31.390;34.904;2022-07-05T07:13:27;8.80;;;3.55;;
70744;SDS011;59284;31.390;34.904;2022-07-05T07:15:52;12.57;;;3.73;;
70744;SDS011;59284;31.390;34.904;2022-07-05T07:18:18;9.13;;;3.60;;
70744;SDS011;59284;31.390;34.904;2022-07-05T07:20:44;6.43;;;3.90;;
70744;SDS011;59284;31.390;34.904;2022-07-05T07:23:09;8.02;;;3.30;;
70744;SDS011;59284;31.390;34.904;2022-07-05T07:25:35;10.00;;;3.40;;
70744;SDS011;59284;31.390;34.904;2022-07-05T07:28:01;10.75;;;3.58;;
70744;SDS011;59284;31.390;34.904;2022-07-05T07:30:27;6.37;;;2.90;;
70744;SDS011;59284;31.390;34.904;2022-07-05T07:32:53;4.87;;;2.77;;
70744;SDS011;59284;31.390;34.904;2022-07-05T07:35:20;9.73;;;3.65;;
70744;SDS011;59284;31.390;34.904;2022-07-05T07:37:46;9.55;;;3.10;;
70744;SDS011;59284;31.390;34.904;2022-07-05T07:40:15;6.95;;;3.00;;
70744;SDS011;59284;31.390;34.904;2022-07-05T07:42:40;7.78;;;3.08;;
70744;SDS011;59284;31.390;34.904;2022-07-05T07:45:06;7.87;;;3.20;;
70744;SDS011;59284;31.390;34.904;2022-07-05T07:47:33;7.57;;;3.00;;
70744;SDS011;59284;31.390;34.904;2022-07-05T07:50:00;7.03;;;2.80;;
70744;SDS011;59284;31.390;34.904;2022-07-05T07:52:26;6.85;;;3.00;;
70744;SDS011;59284;31.390;34.904;2022-07-05T07:54:52;6.30;;;3.30;;
70744;SDS011;59284;31.390;34.904;2022-07-05T07:57:18;4.97;;;2.85;;
70744;SDS011;59284;31.390;34.904;2022-07-05T07:59:44;8.88;;;2.70;;
70744;SDS011;59284;31.390;34.904;2022-07-05T08:02:10;5.57;;;2.77;;
70744;SDS011;59284;31.390;34.904;2022-07-05T08:04:38;7.88;;;3.00;;
70744;SDS011;59284;31.390;34.904;2022-07-05T08:07:06;4.28;;;2.40;;
70744;SDS011;59284;31.390;34.904;2022-07-05T08:09:32;6.33;;;2.90;;
70744;SDS011;59284;31.390;34.904;2022-07-05T08:11:58;7.50;;;2.88;;
70744;SDS011;59284;31.390;34.904;2022-07-05T08:14:26;6.93;;;2.80;;
70744;SDS011;59284;31.390;34.904;2022-07-05T08:16:52;6.07;;;2.30;;
70744;SDS011;59284;31.390;34.904;2022-07-05T08:19:20;5.88;;;2.40;;
70744;SDS011;59284;31.390;34.904;2022-07-05T08:22:05;3.60;;;2.63;;
70744;SDS011;59284;31.390;34.904;2022-07-05T08:24:32;8.00;;;2.70;;
70744;SDS011;59284;31.390;34.904;2022-07-05T08:26:58;9.20;;;2.73;;
70744;SDS011;59284;31.390;34.904;2022-07-05T08:29:23;6.28;;;3.05;;
70744;SDS011;59284;31.390;34.904;2022-07-05T08:31:50;11.97;;;2.73;;
70744;SDS011;59284;31.390;34.904;2022-07-05T08:34:19;5.07;;;2.75;;
70744;SDS011;59284;31.390;34.904;2022-07-05T08:36:45;9.35;;;3.28;;
70744;SDS011;59284;31.390;34.904;2022-07-05T08:39:15;6.67;;;2.83;;
70744;SDS011;59284;31.390;34.904;2022-07-05T08:41:47;6.80;;;2.88;;
70744;SDS011;59284;31.390;34.904;2022-07-05T08:44:15;5.28;;;2.45;;
70744;SDS011;59284;31.390;34.904;2022-07-05T08:46:43;8.00;;;2.63;;
70744;SDS011;59284;31.390;34.904;2022-07-05T08:49:11;8.07;;;3.30;;
70744;SDS011;59284;31.390;34.904;2022-07-05T08:51:40;5.97;;;2.63;;
70744;SDS011;59284;31.390;34.904;2022-07-05T08:54:11;6.95;;;2.40;;
70744;SDS011;59284;31.390;34.904;2022-07-05T08:56:37;10.15;;;2.67;;
70744;SDS011;59284;31.390;34.904;2022-07-05T08:59:06;6.55;;;3.00;;
70744;SDS011;59284;31.390;34.904;2022-07-05T09:01:32;6.07;;;2.38;;
70744;SDS011;59284;31.390;34.904;2022-07-05T09:04:06;4.97;;;3.00;;
70744;SDS011;59284;31.390;34.904;2022-07-05T09:06:37;6.32;;;2.58;;
70744;SDS011;59284;31.390;34.904;2022-07-05T09:09:05;9.02;;;3.13;;
70744;SDS011;59284;31.390;34.904;2022-07-05T09:14:00;14.32;;;3.92;;
70744;SDS011;59284;31.390;34.904;2022-07-05T09:16:28;3.13;;;2.13;;
70744;SDS011;59284;31.390;34.904;2022-07-05T09:18:54;5.60;;;2.83;;
70744;SDS011;59284;31.390;34.904;2022-07-05T09:21:22;5.45;;;2.15;;
70744;SDS011;59284;31.390;34.904;2022-07-05T09:23:53;4.80;;;2.33;;
70744;SDS011;59284;31.390;34.904;2022-07-05T09:26:20;6.03;;;2.80;;
70744;SDS011;59284;31.390;34.904;2022-07-05T09:28:53;3.97;;;2.50;;
70744;SDS011;59284;31.390;34.904;2022-07-05T09:31:30;4.38;;;2.85;;
70744;SDS011;59284;31.390;34.904;2022-07-05T09:34:07;7.00;;;3.20;;
70744;SDS011;59284;31.390;34.904;2022-07-05T09:42:09;7.20;;;2.97;;
70744;SDS011;59284;31.390;34.904;2022-07-05T09:44:54;10.60;;;3.42;;
70744;SDS011;59284;31.390;34.904;2022-07-05T09:47:22;8.25;;;3.72;;
70744;SDS011;59284;31.390;34.904;2022-07-05T09:49:58;4.40;;;3.53;;
70744;SDS011;59284;31.390;34.904;2022-07-05T09:57:42;5.70;;;2.92;;
70744;SDS011;59284;31.390;34.904;2022-07-05T10:00:10;7.07;;;3.58;;
70744;SDS011;59284;31.390;34.904;2022-07-05T10:02:41;7.68;;;3.53;;
70744;SDS011;59284;31.390;34.904;2022-07-05T10:05:25;7.75;;;3.80;;
70744;SDS011;59284;31.390;34.904;2022-07-05T10:07:55;7.73;;;4.13;;
70744;SDS011;59284;31.390;34.904;2022-07-05T10:10:29;9.25;;;3.97;;
70744;SDS011;59284;31.390;34.904;2022-07-05T10:13:03;8.20;;;3.60;;
70744;SDS011;59284;31.390;34.904;2022-07-05T10:15:31;5.60;;;2.97;;
70744;SDS011;59284;31.390;34.904;2022-07-05T10:20:44;6.23;;;3.40;;
70744;SDS011;59284;31.390;34.904;2022-07-05T10:23:14;9.98;;;3.90;;
70744;SDS011;59284;31.390;34.904;2022-07-05T10:25:42;5.07;;;3.28;;
70744;SDS011;59284;31.390;34.904;2022-07-05T10:28:16;8.68;;;3.13;;
70744;SDS011;59284;31.390;34.904;2022-07-05T10:30:46;7.43;;;3.30;;
70744;SDS011;59284;31.390;34.904;2022-07-05T10:33:15;5.17;;;3.13;;
70744;SDS011;59284;31.390;34.904;2022-07-05T10:35:46;9.63;;;3.50;;
70744;SDS011;59284;31.390;34.904;2022-07-05T10:38:12;7.68;;;3.63;;
70744;SDS011;59284;31.390;34.904;2022-07-05T10:40:39;6.53;;;3.15;;
70744;SDS011;59284;31.390;34.904;2022-07-05T10:43:10;6.63;;;3.25;;
70744;SDS011;59284;31.390;34.904;2022-07-05T10:45:39;6.43;;;3.00;;
70744;SDS011;59284;31.390;34.904;2022-07-05T10:50:53;4.50;;;3.10;;
70744;SDS011;59284;31.390;34.904;2022-07-05T10:53:21;10.65;;;3.40;;
70744;SDS011;59284;31.390;34.904;2022-07-05T10:55:56;8.77;;;3.25;;
70744;SDS011;59284;31.390;34.904;2022-07-05T10:58:45;4.00;;;2.37;;
70744;SDS011;59284;31.390;34.904;2022-07-05T11:03:41;10.43;;;3.30;;
70744;SDS011;59284;31.390;34.904;2022-07-05T11:06:29;8.40;;;2.83;;
70744;SDS011;59284;31.390;34.904;2022-07-05T11:13:50;6.22;;;2.72;;
70744;SDS011;59284;31.390;34.904;2022-07-05T11:18:49;4.65;;;2.70;;
70744;SDS011;59284;31.390;34.904;2022-07-05T11:21:20;9.88;;;3.05;;
70744;SDS011;59284;31.390;34.904;2022-07-05T11:23:47;6.78;;;2.72;;
70744;SDS011;59284;31.390;34.904;2022-07-05T11:26:13;5.03;;;2.67;;
70744;SDS011;59284;31.390;34.904;2022-07-05T11:28:47;4.13;;;1.90;;
70744;SDS011;59284;31.390;34.904;2022-07-05T11:34:13;7.25;;;2.90;;
70744;SDS011;59284;31.390;34.904;2022-07-05T11:36:40;5.55;;;2.40;;
70744;SDS011;59284;31.390;34.904;2022-07-05T11:39:12;7.23;;;2.80;;
70744;SDS011;59284;31.390;34.904;2022-07-05T11:41:46;4.00;;;2.47;;
70744;SDS011;59284;31.390;34.904;2022-07-05T11:44:13;5.68;;;2.75;;
70744;SDS011;59284;31.390;34.904;2022-07-05T11:46:40;5.13;;;2.33;;
70744;SDS011;59284;31.390;34.904;2022-07-05T11:49:07;5.93;;;2.33;;
70744;SDS011;59284;31.390;34.904;2022-07-05T11:51:32;4.25;;;2.47;;
70744;SDS011;59284;31.390;34.904;2022-07-05T11:53:58;4.83;;;2.27;;
70744;SDS011;59284;31.390;34.904;2022-07-05T11:56:28;7.57;;;2.10;;
70744;SDS011;59284;31.390;34.904;2022-07-05T11:58:54;4.35;;;2.67;;
70744;SDS011;59284;31.390;34.904;2022-07-05T12:01:20;8.73;;;2.38;;
70744;SDS011;59284;31.390;34.904;2022-07-05T12:03:52;8.63;;;2.30;;
70744;SDS011;59284;31.390;34.904;2022-07-05T12:06:21;6.80;;;2.13;;
70744;SDS011;59284;31.390;34.904;2022-07-05T12:09:00;5.28;;;2.38;;
70744;SDS011;59284;31.390;34.904;2022-07-05T12:11:32;4.38;;;2.10;;
70744;SDS011;59284;31.390;34.904;2022-07-05T12:16:48;10.65;;;2.40;;
70744;SDS011;59284;31.390;34.904;2022-07-05T12:19:32;5.35;;;2.10;;
70744;SDS011;59284;31.390;34.904;2022-07-05T12:21:58;7.27;;;2.57;;
70744;SDS011;59284;31.390;34.904;2022-07-05T12:24:23;7.13;;;1.80;;
70744;SDS011;59284;31.390;34.904;2022-07-05T12:26:50;6.13;;;1.80;;
70744;SDS011;59284;31.390;34.904;2022-07-05T12:29:17;3.70;;;2.45;;
70744;SDS011;59284;31.390;34.904;2022-07-05T12:32:00;5.47;;;2.23;;
70744;SDS011;59284;31.390;34.904;2022-07-05T12:34:26;10.82;;;2.28;;
70744;SDS011;59284;31.390;34.904;2022-07-05T12:36:52;4.93;;;1.92;;
70744;SDS011;59284;31.390;34.904;2022-07-05T12:39:23;4.35;;;1.88;;
70744;SDS011;59284;31.390;34.904;2022-07-05T12:41:49;2.83;;;1.92;;
70744;SDS011;59284;31.390;34.904;2022-07-05T12:44:18;3.30;;;2.50;;
70744;SDS011;59284;31.390;34.904;2022-07-05T12:46:45;7.10;;;1.85;;
70744;SDS011;59284;31.390;34.904;2022-07-05T12:49:14;4.38;;;2.00;;
70744;SDS011;59284;31.390;34.904;2022-07-05T12:51:45;3.22;;;1.80;;
70744;SDS011;59284;31.390;34.904;2022-07-05T12:54:23;4.73;;;2.37;;
70744;SDS011;59284;31.390;34.904;2022-07-05T12:57:08;5.50;;;2.10;;
70744;SDS011;59284;31.390;34.904;2022-07-05T13:00:05;6.03;;;1.92;;
70744;SDS011;59284;31.390;34.904;2022-07-05T13:02:42;3.88;;;1.88;;
70744;SDS011;59284;31.390;34.904;2022-07-05T13:05:21;6.20;;;2.13;;
70744;SDS011;59284;31.390;34.904;2022-07-05T13:07:49;7.38;;;2.03;;
70744;SDS011;59284;31.390;34.904;2022-07-05T13:10:23;5.10;;;1.80;;
70744;SDS011;59284;31.390;34.904;2022-07-05T13:13:02;4.00;;;1.83;;
70744;SDS011;59284;31.390;34.904;2022-07-05T13:15:31;4.43;;;2.30;;
70744;SDS011;59284;31.390;34.904;2022-07-05T13:17:59;4.43;;;2.20;;
70744;SDS011;59284;31.390;34.904;2022-07-05T13:20:25;6.72;;;2.03;;
70744;SDS011;59284;31.390;34.904;2022-07-05T13:22:51;3.93;;;2.50;;
70744;SDS011;59284;31.390;34.904;2022-07-05T13:25:20;4.33;;;1.97;;
70744;SDS011;59284;31.390;34.904;2022-07-05T13:27:45;3.75;;;2.10;;
70744;SDS011;59284;31.390;34.904;2022-07-05T13:30:11;7.43;;;2.37;;
70744;SDS011;59284;31.390;34.904;2022-07-05T13:32:39;8.82;;;2.40;;
70744;SDS011;59284;31.390;34.904;2022-07-05T13:35:08;4.60;;;1.90;;
70744;SDS011;59284;31.390;34.904;2022-07-05T13:37:34;3.90;;;1.83;;
70744;SDS011;59284;31.390;34.904;2022-07-05T13:39:59;3.57;;;2.10;;
70744;SDS011;59284;31.390;34.904;2022-07-05T13:42:26;3.67;;;2.05;;
70744;SDS011;59284;31.390;34.904;2022-07-05T13:44:53;4.30;;;2.38;;
70744;SDS011;59284;31.390;34.904;2022-07-05T13:47:19;3.37;;;2.17;;
70744;SDS011;59284;31.390;34.904;2022-07-05T13:49:48;6.90;;;2.10;;
70744;SDS011;59284;31.390;34.904;2022-07-05T13:52:14;3.70;;;2.40;;
70744;SDS011;59284;31.390;34.904;2022-07-05T13:54:45;4.75;;;2.22;;
70744;SDS011;59284;31.390;34.904;2022-07-05T13:57:17;3.95;;;2.33;;
70744;SDS011;59284;31.390;34.904;2022-07-05T13:59:43;3.00;;;2.00;;
70744;SDS011;59284;31.390;34.904;2022-07-05T14:02:13;4.47;;;2.10;;
70744;SDS011;59284;31.390;34.904;2022-07-05T14:04:38;5.53;;;1.93;;
70744;SDS011;59284;31.390;34.904;2022-07-05T14:07:07;3.22;;;2.30;;
70744;SDS011;59284;31.390;34.904;2022-07-05T14:09:33;3.05;;;1.55;;
70744;SDS011;59284;31.390;34.904;2022-07-05T14:11:58;3.63;;;2.20;;
70744;SDS011;59284;31.390;34.904;2022-07-05T14:14:24;3.83;;;1.70;;
70744;SDS011;59284;31.390;34.904;2022-07-05T14:16:50;3.20;;;1.83;;
70744;SDS011;59284;31.390;34.904;2022-07-05T14:19:17;3.70;;;2.10;;
70744;SDS011;59284;31.390;34.904;2022-07-05T14:21:48;4.47;;;2.30;;
70744;SDS011;59284;31.390;34.904;2022-07-05T14:24:14;3.22;;;2.13;;
70744;SDS011;59284;31.390;34.904;2022-07-05T14:26:46;7.13;;;1.83;;
70744;SDS011;59284;31.390;34.904;2022-07-05T14:29:12;3.25;;;2.00;;
70744;SDS011;59284;31.390;34.904;2022-07-05T14:31:37;3.90;;;2.10;;
70744;SDS011;59284;31.390;34.904;2022-07-05T14:34:03;3.03;;;1.60;;
70744;SDS011;59284;31.390;34.904;2022-07-05T14:36:41;2.75;;;1.67;;
70744;SDS011;59284;31.390;34.904;2022-07-05T14:39:10;3.85;;;1.73;;
70744;SDS011;59284;31.390;34.904;2022-07-05T14:41:38;4.20;;;1.70;;
70744;SDS011;59284;31.390;34.904;2022-07-05T14:44:04;5.33;;;2.00;;
70744;SDS011;59284;31.390;34.904;2022-07-05T14:46:29;6.53;;;1.95;;
70744;SDS011;59284;31.390;34.904;2022-07-05T14:48:58;3.85;;;1.65;;
70744;SDS011;59284;31.390;34.904;2022-07-05T14:51:23;5.27;;;2.17;;
70744;SDS011;59284;31.390;34.904;2022-07-05T14:53:49;3.95;;;2.35;;
70744;SDS011;59284;31.390;34.904;2022-07-05T14:56:15;4.37;;;1.87;;
70744;SDS011;59284;31.390;34.904;2022-07-05T14:58:41;3.15;;;2.15;;
70744;SDS011;59284;31.390;34.904;2022-07-05T15:01:06;3.58;;;1.75;;
70744;SDS011;59284;31.390;34.904;2022-07-05T15:03:32;4.23;;;2.13;;
70744;SDS011;59284;31.390;34.904;2022-07-05T15:05:58;3.75;;;2.03;;
70744;SDS011;59284;31.390;34.904;2022-07-05T15:08:23;7.13;;;2.00;;
70744;SDS011;59284;31.390;34.904;2022-07-05T15:10:52;4.05;;;2.00;;
70744;SDS011;59284;31.390;34.904;2022-07-05T15:13:17;6.13;;;1.67;;
70744;SDS011;59284;31.390;34.904;2022-07-05T15:15:43;9.93;;;2.30;;
70744;SDS011;59284;31.390;34.904;2022-07-05T15:18:08;3.70;;;1.70;;
70744;SDS011;59284;31.390;34.904;2022-07-05T15:20:34;4.32;;;1.83;;
70744;SDS011;59284;31.390;34.904;2022-07-05T15:23:00;2.90;;;2.07;;
70744;SDS011;59284;31.390;34.904;2022-07-05T15:25:25;5.70;;;2.28;;